Time;durP1;ratioP1;P1;durP2;ratioP2;P2;SDS_P1;SDS_P2;PMS_P1;PMS_P2;Temp;Humidity;BMP_temperature;BMP_pressure;BME280_temperature;BME280_humidity;BME280_pressure;Samples;Min_cycle;Max_cycle;Signal;HPM_P1;HPM_P2
2022/04/01 00:01:15;;;;;;;4.05;3.10;;;;;;;-146.64;100.00;118402.03;5027716;28;20037;-81
2022/04/01 00:03:41;;;;;;;3.30;3.00;;;;;;;-146.64;100.00;118402.03;5008839;28;20041;-81
2022/04/01 00:06:06;;;;;;;4.78;3.40;;;;;;;-146.64;100.00;118402.03;5003849;28;20053;-81
2022/04/01 00:08:31;;;;;;;4.15;3.40;;;;;;;-146.64;100.00;118402.03;5018949;28;20021;-81
2022/04/01 00:10:57;;;;;;;3.90;3.40;;;;;;;-146.64;100.00;118402.03;5000418;28;20176;-81
2022/04/01 00:13:23;;;;;;;4.55;2.83;;;;;;;-146.64;100.00;118402.03;5016290;28;20076;-81
2022/04/01 00:15:48;;;;;;;4.85;3.63;;;;;;;-146.64;100.00;118402.03;5003687;28;20040;-79
2022/04/01 00:18:14;;;;;;;3.00;2.72;;;;;;;-146.64;100.00;118402.03;5005096;28;20026;-81
2022/04/01 00:20:39;;;;;;;3.17;2.88;;;;;;;-146.64;100.00;118402.03;5006065;28;20214;-81
2022/04/01 00:23:04;;;;;;;3.33;2.97;;;;;;;-146.64;100.00;118402.03;5026873;28;20037;-80
2022/04/01 00:25:30;;;;;;;7.75;3.03;;;;;;;-146.64;100.00;118402.03;5004005;28;20068;-81
2022/04/01 00:27:55;;;;;;;3.22;2.92;;;;;;;-146.64;100.00;118402.03;5020155;28;20432;-80
2022/04/01 00:30:20;;;;;;;3.13;2.80;;;;;;;-146.64;100.00;118402.03;5007957;28;20029;-82
2022/04/01 00:32:46;;;;;;;6.68;3.05;;;;;;;-146.64;100.00;118402.03;5023037;28;20026;-83
2022/04/01 00:35:12;;;;;;;2.97;2.78;;;;;;;-146.64;100.00;118402.03;5015896;28;20025;-82
2022/04/01 00:37:38;;;;;;;2.75;2.53;;;;;;;-146.64;100.00;118402.03;5020483;28;20034;-82
2022/04/01 00:40:04;;;;;;;3.97;3.38;;;;;;;-146.64;100.00;118402.03;5019390;28;20037;-82
2022/04/01 00:42:30;;;;;;;3.27;2.97;;;;;;;-146.64;100.00;118402.03;5003667;28;20030;-80
2022/04/01 00:44:57;;;;;;;4.13;3.27;;;;;;;-146.64;100.00;118402.03;5005391;28;20351;-81
2022/04/01 00:47:22;;;;;;;3.53;3.22;;;;;;;-146.64;100.00;118402.03;5006921;28;20058;-83
2022/04/01 00:49:50;;;;;;;3.28;2.95;;;;;;;-146.64;100.00;118402.03;5019449;28;20087;-82
2022/04/01 00:52:15;;;;;;;;;;;;;;;-146.64;100.00;118402.03;5029532;28;20104;-81
2022/04/01 00:54:41;;;;;;;3.03;2.72;;;;;;;-146.64;100.00;118402.03;5009789;28;19909;-82
2022/04/01 00:57:10;;;;;;;3.22;2.88;;;;;;;-146.64;100.00;118402.03;5023013;28;20029;-82
2022/04/01 00:59:35;;;;;;;3.42;3.13;;;;;;;-146.64;100.00;118402.03;5013963;28;20021;-81
2022/04/01 01:02:01;;;;;;;3.65;2.90;;;;;;;-146.64;100.00;118402.03;4991527;28;20511;-82
2022/04/01 01:04:27;;;;;;;4.38;3.33;;;;;;;-146.64;100.00;118402.03;5005576;28;20030;-81
2022/04/01 01:06:56;;;;;;;4.13;3.13;;;;;;;-146.64;100.00;118402.03;4999155;28;20046;-82
2022/04/01 01:09:23;;;;;;;4.75;3.20;;;;;;;-146.64;100.00;118402.03;5003912;28;20049;-82
2022/04/01 01:11:50;;;;;;;;;;;;;;;-146.64;100.00;118402.03;5023374;28;20014;-82
2022/04/01 01:14:24;;;;;;;3.83;3.45;;;;;;;-146.64;100.00;118402.03;5004331;28;19914;-82
2022/04/01 01:16:50;;;;;;;3.70;3.22;;;;;;;-146.64;100.00;118402.03;5017292;28;20028;-82
2022/04/01 01:19:16;;;;;;;3.55;3.25;;;;;;;-146.64;100.00;118402.03;5024961;28;20030;-82
2022/04/01 01:21:43;;;;;;;6.50;3.38;;;;;;;-146.64;100.00;118402.03;5008712;28;20026;-82
2022/04/01 01:24:14;;;;;;;3.65;3.22;;;;;;;-146.64;100.00;118402.03;5021727;28;20401;-82
2022/04/01 01:26:41;;;;;;;4.50;3.42;;;;;;;-146.64;100.00;118402.03;5004333;28;20053;-84
2022/04/01 01:29:08;;;;;;;6.78;3.70;;;;;;;-146.64;100.00;118402.03;5026822;28;20018;-82
2022/04/01 01:31:33;;;;;;;4.03;3.55;;;;;;;-146.64;100.00;118402.03;5020031;28;20026;-82
2022/04/01 01:33:59;;;;;;;3.67;3.38;;;;;;;-146.64;100.00;118402.03;5022455;28;20030;-82
2022/04/01 01:36:27;;;;;;;3.85;3.47;;;;;;;-146.64;100.00;118402.03;5002221;28;20034;-82
2022/04/01 01:38:52;;;;;;;3.88;3.40;;;;;;;-146.64;100.00;118402.03;5019187;28;20040;-82
2022/04/01 01:41:18;;;;;;;4.97;3.45;;;;;;;-146.64;100.00;118402.03;4994612;28;20026;-81
2022/04/01 01:43:43;;;;;;;3.63;3.30;;;;;;;-146.64;100.00;118402.03;5019012;28;20097;-81
2022/04/01 01:46:10;;;;;;;4.82;3.60;;;;;;;-146.64;100.00;118402.03;5021443;28;20030;-81
2022/04/01 01:48:37;;;;;;;4.28;3.78;;;;;;;-146.64;100.00;118402.03;5021125;28;20077;-82
2022/04/01 01:56:32;;;;;;;4.88;3.92;;;;;;;-146.64;100.00;118402.03;5023250;28;20089;-82
2022/04/01 01:58:58;;;;;;;4.93;3.25;;;;;;;-146.64;100.00;118402.03;5007391;28;20481;-82
2022/04/01 02:01:25;;;;;;;3.65;3.33;;;;;;;-146.64;100.00;118402.03;5008838;28;20022;-82
2022/04/01 02:03:53;;;;;;;3.53;3.22;;;;;;;-146.64;100.00;118402.03;5028180;28;20040;-83
2022/04/01 02:06:21;;;;;;;3.80;2.95;;;;;;;-146.64;100.00;118402.03;5009055;28;20022;-83
2022/04/01 02:08:50;;;;;;;4.20;3.80;;;;;;;-146.64;100.00;118402.03;5009698;28;20098;-83
2022/04/01 02:11:16;;;;;;;4.65;3.60;;;;;;;-146.64;100.00;118402.03;5005156;28;20018;-83
2022/04/01 02:13:41;;;;;;;8.10;4.00;;;;;;;-146.64;100.00;118402.03;5008866;28;20044;-82
2022/04/01 02:16:06;;;;;;;7.40;4.05;;;;;;;-146.64;100.00;118402.03;5026577;28;20117;-83
2022/04/01 02:18:32;;;;;;;5.18;3.58;;;;;;;-146.64;100.00;118402.03;5026324;28;20038;-83
2022/04/01 02:20:57;;;;;;;6.30;4.53;;;;;;;-146.64;100.00;118402.03;5008394;28;20347;-83
2022/04/01 02:23:24;;;;;;;4.18;3.80;;;;;;;-146.64;100.00;118402.03;5027143;28;20041;-83
2022/04/01 02:25:50;;;;;;;4.78;4.15;;;;;;;-146.64;100.00;118402.03;5010747;28;20053;-82
2022/04/01 02:28:15;;;;;;;5.55;4.60;;;;;;;-146.64;100.00;118402.03;5028396;28;20021;-82
2022/04/01 02:30:41;;;;;;;4.88;3.88;;;;;;;-146.64;100.00;118402.03;5010835;28;20128;-82
2022/04/01 02:33:06;;;;;;;4.78;3.60;;;;;;;-146.64;100.00;118402.03;5011789;28;20088;-83
2022/04/01 02:35:32;;;;;;;5.35;4.20;;;;;;;-146.64;100.00;118402.03;5041963;28;20041;-83
2022/04/01 02:37:58;;;;;;;6.80;4.40;;;;;;;-146.64;100.00;118402.03;5011546;28;20041;-81
2022/04/01 02:40:23;;;;;;;6.38;4.78;;;;;;;-146.64;100.00;118402.03;5010405;28;20041;-82
2022/04/01 02:42:53;;;;;;;5.45;4.43;;;;;;;-146.64;100.00;118402.03;5025268;28;20049;-83
2022/04/01 02:45:20;;;;;;;7.18;4.43;;;;;;;-146.64;100.00;118402.03;5011981;28;19998;-82
2022/04/01 02:47:45;;;;;;;9.75;4.53;;;;;;;-146.64;100.00;118402.03;5027383;28;20085;-83
2022/04/01 02:50:10;;;;;;;4.40;4.00;;;;;;;-146.64;100.00;118402.03;5020564;28;20041;-83
2022/04/01 02:52:36;;;;;;;4.20;3.80;;;;;;;-146.64;100.00;118402.03;5019959;28;20022;-83
2022/04/01 02:55:01;;;;;;;5.43;3.97;;;;;;;-146.64;100.00;118402.03;4998168;28;20038;-82
2022/04/01 02:57:27;;;;;;;4.90;4.10;;;;;;;-146.64;100.00;118402.03;5028271;28;20044;-82
2022/04/01 02:59:52;;;;;;;4.85;4.45;;;;;;;-146.64;100.00;118402.03;5012568;28;20030;-83
2022/04/01 03:02:18;;;;;;;4.97;4.47;;;;;;;-146.64;100.00;118402.03;5012371;28;20022;-82
2022/04/01 03:04:43;;;;;;;4.90;4.40;;;;;;;-146.64;100.00;118402.03;5010979;28;20089;-82
2022/04/01 03:07:09;;;;;;;5.18;4.68;;;;;;;-146.64;100.00;118402.03;5012588;28;20124;-83
2022/04/01 03:09:34;;;;;;;6.00;3.97;;;;;;;-146.64;100.00;118402.03;5009071;28;20038;-83
2022/04/01 03:12:00;;;;;;;5.93;3.88;;;;;;;-146.64;100.00;118402.03;5040394;28;20022;-82
2022/04/01 03:14:26;;;;;;;5.57;4.55;;;;;;;-146.64;100.00;118402.03;5009568;28;20097;-83
2022/04/01 03:16:52;;;;;;;5.72;4.25;;;;;;;-146.64;100.00;118402.03;5011819;28;20105;-84
2022/04/01 03:19:19;;;;;;;7.38;3.83;;;;;;;-146.64;100.00;118402.03;5010208;28;20030;-82
2022/04/01 03:21:45;;;;;;;5.35;4.20;;;;;;;-146.64;100.00;118402.03;5014777;28;20461;-83
2022/04/01 03:24:12;;;;;;;5.50;4.18;;;;;;;-146.64;100.00;118402.03;5032871;28;20056;-83
2022/04/01 03:26:40;;;;;;;6.85;4.43;;;;;;;-146.64;100.00;118402.03;5026725;28;20034;-83
2022/04/01 03:29:07;;;;;;;7.13;4.25;;;;;;;-146.64;100.00;118402.03;5004059;28;20041;-83
2022/04/01 03:31:32;;;;;;;7.97;4.50;;;;;;;-146.64;100.00;118402.03;5020273;28;20393;-82
2022/04/01 03:33:58;;;;;;;7.15;4.50;;;;;;;-146.64;100.00;118402.03;5024847;28;20138;-83
2022/04/01 03:36:23;;;;;;;6.70;4.80;;;;;;;-146.64;100.00;118402.03;5025663;28;20033;-83
2022/04/01 03:38:48;;;;;;;5.90;4.07;;;;;;;-146.64;100.00;118402.03;5030726;28;20393;-83
2022/04/01 03:41:17;;;;;;;4.82;4.20;;;;;;;-146.64;100.00;118402.03;5027646;28;20034;-83
2022/04/01 03:43:43;;;;;;;6.80;4.28;;;;;;;-146.64;100.00;118402.03;5024112;28;20307;-82
2022/04/01 03:46:11;;;;;;;6.40;4.38;;;;;;;-146.64;100.00;118402.03;5010129;28;20029;-82
2022/04/01 03:48:39;;;;;;;4.65;4.22;;;;;;;-146.64;100.00;118402.03;5026111;28;20026;-83
2022/04/01 03:51:05;;;;;;;4.80;4.00;;;;;;;-146.64;100.00;118402.03;5025033;28;20053;-83
2022/04/01 03:53:36;;;;;;;7.75;4.38;;;;;;;-146.64;100.00;118402.03;5033338;28;20041;-83
2022/04/01 03:56:03;;;;;;;4.55;4.00;;;;;;;-146.64;100.00;118402.03;5025841;28;20041;-83
2022/04/01 03:58:30;;;;;;;4.65;4.10;;;;;;;-146.64;100.00;118402.03;5009908;28;20088;-82
2022/04/01 04:01:00;;;;;;;3.92;3.50;;;;;;;-146.64;100.00;118402.03;5015155;28;20029;-82
2022/04/01 04:03:27;;;;;;;7.50;4.45;;;;;;;-146.64;100.00;118402.03;5008949;28;20405;-83
2022/04/01 04:05:53;;;;;;;7.65;4.68;;;;;;;-146.64;100.00;118402.03;5006756;28;20490;-83
2022/04/01 04:08:19;;;;;;;4.75;3.58;;;;;;;-146.64;100.00;118402.03;5030108;28;20025;-83
2022/04/01 04:10:46;;;;;;;5.93;4.72;;;;;;;-146.64;100.00;118402.03;5007734;28;20389;-83
2022/04/01 04:13:12;;;;;;;9.38;4.78;;;;;;;-146.64;100.00;118402.03;5024273;28;20439;-84
2022/04/01 04:15:44;;;;;;;4.87;4.17;;;;;;;-146.64;100.00;118402.03;5008411;28;20026;-83
2022/04/01 04:18:12;;;;;;;8.23;5.65;;;;;;;-146.64;100.00;118402.03;5009041;28;20098;-82
2022/04/01 04:20:50;;;;;;;7.70;4.60;;;;;;;-146.64;100.00;118402.03;4995847;28;20034;-82
2022/04/01 04:23:23;;;;;;;5.63;4.50;;;;;;;-146.64;100.00;118402.03;4992095;28;20065;-83
2022/04/01 04:26:01;;;;;;;5.28;4.65;;;;;;;-146.64;100.00;118402.03;5006888;28;20053;-82
2022/04/01 04:28:35;;;;;;;6.63;4.28;;;;;;;-146.64;100.00;118402.03;5008472;28;20026;-82
2022/04/01 04:31:03;;;;;;;5.88;4.45;;;;;;;-146.64;100.00;118402.03;5013009;28;20033;-83
2022/04/01 04:33:30;;;;;;;7.65;4.88;;;;;;;-146.64;100.00;118402.03;5021893;28;20049;-82
2022/04/01 04:36:05;;;;;;;6.85;4.40;;;;;;;-146.64;100.00;118402.03;5004848;28;20026;-83
2022/04/01 04:38:36;;;;;;;6.18;4.95;;;;;;;-146.64;100.00;118402.03;4991043;28;20040;-83
2022/04/01 04:41:08;;;;;;;6.47;5.70;;;;;;;-146.64;100.00;118402.03;5009089;28;20029;-83
2022/04/01 04:43:38;;;;;;;7.03;5.18;;;;;;;-146.64;100.00;118402.03;5004344;28;20030;-83
2022/04/01 04:46:04;;;;;;;7.38;4.93;;;;;;;-146.64;100.00;118402.03;5008670;28;20227;-85
2022/04/01 04:48:30;;;;;;;5.95;4.72;;;;;;;-146.64;100.00;118402.03;5005364;28;20373;-84
2022/04/01 04:50:58;;;;;;;11.07;4.45;;;;;;;-146.64;100.00;118402.03;5023337;28;20488;-84
2022/04/01 04:53:24;;;;;;;6.82;4.38;;;;;;;-146.64;100.00;118402.03;5010201;28;20030;-84
2022/04/01 04:55:50;;;;;;;5.03;4.38;;;;;;;-146.64;100.00;118402.03;5015224;28;20033;-83
2022/04/01 04:58:17;;;;;;;5.82;4.55;;;;;;;-146.64;100.00;118402.03;5008760;28;20026;-83
2022/04/01 05:00:45;;;;;;;10.30;4.72;;;;;;;-146.64;100.00;118402.03;5016511;28;20056;-83
2022/04/01 05:03:40;;;;;;;8.93;4.82;;;;;;;-146.64;100.00;118402.03;5028436;28;20034;-84
2022/04/01 05:06:07;;;;;;;5.40;4.72;;;;;;;-146.64;100.00;118402.03;5005339;28;20030;-82
2022/04/01 05:08:54;;;;;;;6.38;4.63;;;;;;;-146.64;100.00;118402.03;5005858;28;20020;-83
2022/04/01 05:11:45;;;;;;;6.30;4.60;;;;;;;-146.64;100.00;118402.03;5011542;28;20030;-82
2022/04/01 05:14:54;;;;;;;5.50;4.50;;;;;;;-146.64;100.00;118402.03;4999578;28;20022;-83
2022/04/01 05:17:27;;;;;;;;;;;;;;;-146.64;100.00;118402.03;4999188;28;20045;-83
2022/04/01 05:20:01;;;;;;;6.35;4.65;;;;;;;-146.64;100.00;118402.03;4996704;28;19948;-83
2022/04/01 05:22:36;;;;;;;6.07;4.72;;;;;;;-146.64;100.00;118402.03;5001532;28;20106;-83
2022/04/01 05:25:03;;;;;;;5.78;4.97;;;;;;;-146.64;100.00;118402.03;5002460;28;20045;-83
2022/04/01 05:27:30;;;;;;;4.93;4.38;;;;;;;-146.64;100.00;118402.03;5011505;28;20044;-83
2022/04/01 05:30:13;;;;;;;8.52;4.50;;;;;;;-146.64;100.00;118402.03;5018841;28;20038;-84
2022/04/01 05:32:40;;;;;;;9.52;4.75;;;;;;;-146.64;100.00;118402.03;5012575;28;20037;-84
2022/04/01 05:35:06;;;;;;;6.10;4.93;;;;;;;-146.64;100.00;118402.03;5007850;28;20037;-83
2022/04/01 05:37:33;;;;;;;5.03;4.40;;;;;;;-146.64;100.00;118402.03;5030404;28;20020;-83
2022/04/01 05:39:59;;;;;;;7.88;4.63;;;;;;;-146.64;100.00;118402.03;5030013;28;20029;-83
2022/04/01 05:42:27;;;;;;;6.55;4.50;;;;;;;-146.64;100.00;118402.03;5011350;28;20045;-83
2022/04/01 05:44:53;;;;;;;5.75;4.10;;;;;;;-146.64;100.00;118402.03;5003456;28;20402;-83
2022/04/01 05:47:20;;;;;;;6.05;4.15;;;;;;;-146.64;100.00;118402.03;5030835;28;20053;-83
2022/04/01 05:49:46;;;;;;;7.00;4.60;;;;;;;-146.64;100.00;118402.03;5007553;28;20037;-82
2022/04/01 05:52:12;;;;;;;6.75;4.88;;;;;;;-146.64;100.00;118402.03;5008647;28;20025;-83
2022/04/01 05:54:42;;;;;;;7.47;5.05;;;;;;;-146.64;100.00;118402.03;5025555;28;20061;-83
2022/04/01 05:57:10;;;;;;;7.60;4.30;;;;;;;-146.64;100.00;118402.03;5011549;28;20042;-83
2022/04/01 05:59:36;;;;;;;6.53;4.75;;;;;;;-146.64;100.00;118402.03;5011673;28;20034;-84
2022/04/01 06:02:20;;;;;;;8.80;4.78;;;;;;;-146.64;100.00;118402.03;5033000;28;20055;-83
2022/04/01 06:04:58;;;;;;;8.73;4.95;;;;;;;-146.64;100.00;118402.03;5026018;28;20030;-83
2022/04/01 06:07:31;;;;;;;7.90;4.43;;;;;;;-146.64;100.00;118402.03;5041982;28;20049;-83
2022/04/01 06:10:16;;;;;;;9.63;4.32;;;;;;;-146.64;100.00;118402.03;5023362;28;20102;-83
2022/04/01 06:12:57;;;;;;;5.45;4.10;;;;;;;-146.64;100.00;118402.03;5006518;28;20382;-84
2022/04/01 06:15:34;;;;;;;5.07;4.55;;;;;;;-146.64;100.00;118402.03;5019479;28;20061;-83
2022/04/01 06:18:26;;;;;;;7.45;4.50;;;;;;;-146.64;100.00;118402.03;5020035;28;20022;-83
2022/04/01 06:20:53;;;;;;;8.48;4.60;;;;;;;-146.64;100.00;118402.03;5030071;28;20042;-84
2022/04/01 06:23:28;;;;;;;6.85;4.45;;;;;;;-146.64;100.00;118402.03;5025571;28;20476;-84
2022/04/01 06:25:59;;;;;;;6.22;4.55;;;;;;;-146.64;100.00;118402.03;5021761;28;20045;-84
2022/04/01 06:28:27;;;;;;;8.10;4.38;;;;;;;-146.64;100.00;118402.03;5015034;28;20520;-84
2022/04/01 06:30:55;;;;;;;8.48;3.97;;;;;;;-146.64;100.00;118402.03;5005240;28;20022;-84
2022/04/01 06:33:30;;;;;;;6.60;4.75;;;;;;;-146.64;100.00;118402.03;5006150;28;20021;-82
2022/04/01 06:36:00;;;;;;;9.18;4.30;;;;;;;-146.64;100.00;118402.03;5023517;28;20061;-84
2022/04/01 06:38:47;;;;;;;9.18;4.75;;;;;;;-146.64;100.00;118402.03;5006591;28;20036;-84
2022/04/01 06:41:14;;;;;;;6.55;3.70;;;;;;;-146.64;100.00;118402.03;5016992;28;20557;-83
2022/04/01 06:43:40;;;;;;;5.85;4.40;;;;;;;-146.64;100.00;118402.03;5017142;28;20029;-84
2022/04/01 06:46:06;;;;;;;7.15;4.43;;;;;;;-146.64;100.00;118402.03;4989728;28;20044;-83
2022/04/01 06:48:32;;;;;;;7.47;5.05;;;;;;;-146.64;100.00;118402.03;5022090;28;20033;-83
2022/04/01 06:50:58;;;;;;;8.20;4.88;;;;;;;-146.64;100.00;118399.94;5007469;28;20046;-83
2022/04/01 06:53:23;;;;;;;5.97;4.05;;;;;;;-146.64;100.00;118399.94;5021670;28;20030;-84
2022/04/01 06:55:49;;;;;;;7.60;4.25;;;;;;;-146.64;100.00;118399.94;5036136;28;20025;-84
2022/04/01 06:58:14;;;;;;;8.20;4.03;;;;;;;-146.64;100.00;118132.78;5000995;28;20113;-84
2022/04/01 07:00:42;;;;;;;6.68;4.32;;;;;;;-146.64;100.00;117865.63;5006277;28;20029;-83
2022/04/01 07:03:08;;;;;;;9.55;4.60;;;;;;;-146.64;100.00;117331.34;5004681;28;20021;-83
2022/04/01 07:05:34;;;;;;;4.72;4.15;;;;;;;-146.64;100.00;116797.16;5006922;28;20072;-83
2022/04/01 07:08:04;;;;;;;6.82;4.25;;;;;;;-146.64;100.00;115996.03;5001501;28;20029;-83
2022/04/01 07:10:29;;;;;;;13.20;5.00;;;;;;;-146.64;100.00;115195.03;5022880;28;20030;-82
2022/04/01 07:12:54;;;;;;;5.18;3.92;;;;;;;-146.64;100.00;114394.19;5012919;28;20048;-81
2022/04/01 07:15:20;;;;;;;5.72;3.70;;;;;;;-146.64;100.00;112526.16;5032749;28;20034;-82
2022/04/01 07:17:46;;;;;;;5.97;3.63;;;;;;;-146.64;100.00;111192.41;4998801;28;20034;-84
2022/04/01 07:20:15;;;;;;;6.22;3.90;;;;;;;-146.64;100.00;109592.44;5000498;28;20488;-82
2022/04/01 07:22:41;;;;;;;10.32;4.38;;;;;;;-146.64;100.00;108792.72;4999693;28;20018;-83
2022/04/01 07:25:08;;;;;;;7.15;3.40;;;;;;;-146.64;100.00;107726.63;5020718;28;20049;-83
2022/04/01 07:27:34;;;;;;;5.00;3.08;;;;;;;-146.64;100.00;106660.84;5013764;28;20034;-83
2022/04/01 07:30:00;;;;;;;3.95;3.20;;;;;;;-146.64;100.00;104796.38;5020066;28;20050;-83
2022/04/01 07:32:34;;;;;;;5.93;3.03;;;;;;;-146.64;100.00;103731.34;5031895;28;20112;-82
2022/04/01 07:35:01;;;;;;;7.43;3.47;;;;;;;-146.64;100.00;102400.44;5004362;28;20056;-82
2022/04/01 07:37:28;;;;;;;11.13;3.83;;;;;;;-146.64;100.00;100537.94;5017837;28;20021;-82
2022/04/01 07:39:54;;;;;;;7.30;3.38;;;;;;;-146.64;100.00;98942.19;5020503;28;20033;-83
2022/04/01 07:42:21;;;;;;;5.18;4.00;;;;;;;-146.64;100.00;96283.97;5015097;28;20026;-83
2022/04/01 07:44:47;;;;;;;;;;;;;;;-146.64;100.00;94689.88;5023097;28;20049;-83
2022/04/01 07:47:14;;;;;;;5.80;3.05;;;;;;;-146.64;100.00;92830.91;5018173;28;19913;-82
2022/04/01 07:49:43;;;;;;;3.97;3.15;;;;;;;-146.64;100.00;94158.66;5016168;28;20037;-83
2022/04/01 07:52:10;;;;;;;6.50;3.50;;;;;;;-146.64;100.00;91503.59;5016013;28;20025;-83
2022/04/01 07:54:36;;;;;;;10.07;3.10;;;;;;;-146.64;100.00;89646.09;5005219;28;20678;-82
2022/04/01 07:57:03;;;;;;;5.88;2.72;;;;;;;-146.64;100.00;88319.81;5017630;28;20041;-82
2022/04/01 07:59:28;;;;;;;12.23;3.13;;;;;;;-146.64;100.00;86463.78;5002193;28;20022;-83
2022/04/01 08:01:54;;;;;;;6.85;3.17;;;;;;;-146.64;100.00;89115.53;5004710;28;20176;-83
2022/04/01 08:04:19;;;;;;;8.98;2.95;;;;;;;-146.64;100.00;82754.28;5005479;28;20026;-81
2022/04/01 08:06:45;;;;;;;5.90;3.53;;;;;;;-146.64;100.00;82754.28;5005849;28;20041;-82
2022/04/01 08:09:10;;;;;;;8.85;2.75;;;;;;;-146.64;100.00;80371.41;5021801;28;20069;-82
2022/04/01 08:11:37;;;;;;;5.32;2.60;;;;;;;-146.64;100.00;77725.41;5004843;28;20046;-82
2022/04/01 08:14:02;;;;;;;4.97;2.60;;;;;;;-146.64;100.00;78519.03;5004550;28;20049;-82
2022/04/01 08:16:28;;;;;;;7.07;2.30;;;;;;;-146.64;100.00;77460.91;5005942;28;20037;-82
2022/04/01 08:18:53;;;;;;;2.90;2.22;;;;;;;-146.64;100.00;78783.59;5002427;28;20045;-80
2022/04/01 08:21:18;;;;;;;5.13;2.65;;;;;;;-146.64;100.00;71382.16;5017082;28;20062;-82
2022/04/01 08:23:44;;;;;;;7.88;3.42;;;;;;;-146.64;100.00;76403.06;5018634;28;20037;-82
2022/04/01 08:26:11;;;;;;;3.35;2.38;;;;;;;-146.64;100.00;67422.72;5016002;28;20054;-80
2022/04/01 08:28:37;;;;;;;5.20;2.40;;;;;;;-146.64;100.00;64785.31;5018399;28;20030;-81
2022/04/01 08:31:03;;;;;;;6.57;2.63;;;;;;;-146.64;100.00;67422.72;5012779;28;20033;-81
2022/04/01 08:33:29;;;;;;;3.70;2.58;;;;;;;-146.64;100.00;69797.91;5002571;28;20088;-81
2022/04/01 08:35:54;;;;;;;7.85;2.38;;;;;;;-146.64;100.00;65576.34;5001090;28;20073;-80
2022/04/01 08:38:19;;;;;;;5.28;2.53;;;;;;;-146.64;100.00;58725.81;5003588;28;20512;-81
2022/04/01 08:40:45;;;;;;;4.30;2.25;;;;;;;-146.64;100.00;51542.19;5002526;28;20105;-81
2022/04/01 08:43:12;;;;;;;6.07;2.45;;;;;;;-146.64;100.00;47175.91;4999931;28;20052;-81
2022/04/01 08:45:38;;;;;;;2.65;2.15;;;;;;;-146.64;100.00;49811.94;4999812;28;20033;-81
2022/04/01 08:48:05;;;;;;;5.68;3.30;;;;;;;-146.64;100.00;43695.38;5021077;28;20437;-81
2022/04/01 08:50:30;;;;;;;6.50;1.92;;;;;;;-146.64;100.00;43310.22;5021193;28;20030;-81
2022/04/01 08:52:56;;;;;;;7.25;3.10;;;;;;;-146.64;100.00;41991.09;5016511;28;20072;-81
2022/04/01 08:55:22;;;;;;;3.63;2.20;;;;;;;-146.64;100.00;48533.69;5025692;28;20550;-81
2022/04/01 08:57:47;;;;;;;4.78;2.10;;;;;;;-146.64;100.00;43445.44;5015415;28;20050;-81
2022/04/01 09:00:15;;;;;;;5.07;1.88;;;;;;;-146.64;100.00;40946.75;4998952;28;20046;-81
2022/04/01 09:02:42;;;;;;;6.68;2.25;;;;;;;-146.64;100.00;42707.94;5020830;28;20053;-81
2022/04/01 09:05:07;;;;;;;6.90;1.92;;;;;;;-146.64;100.00;42699.75;5021135;28;20603;-81
2022/04/01 09:07:33;;;;;;;4.47;1.88;;;;;;;-146.64;100.00;42695.66;5017294;28;20065;-81
2022/04/01 09:10:06;;;;;;;6.25;2.00;;;;;;;-146.64;100.00;42961.97;5016211;28;20021;-81
2022/04/01 09:12:33;;;;;;;6.65;1.98;;;;;;;-146.64;100.00;41868.22;4990631;28;20037;-80
2022/04/01 09:14:59;;;;;;;;;;;;;;;-146.64;100.00;41999.28;5014934;28;20033;-80
2022/04/01 09:17:45;;;;;;;1.95;1.75;;;;;;;-146.64;100.00;40828.00;5019638;28;19924;-81
2022/04/01 09:20:11;;;;;;;4.90;1.92;;;;;;;-146.64;100.00;41278.44;5003857;28;20034;-81
2022/04/01 09:22:38;;;;;;;4.80;2.13;;;;;;;-146.64;100.00;41098.25;5017183;28;20033;-80
2022/04/01 09:25:08;;;;;;;4.30;2.22;;;;;;;-146.64;100.00;41249.78;5003733;28;20057;-81
2022/04/01 09:27:51;;;;;;;5.68;2.25;;;;;;;-146.64;100.00;41200.66;5000085;28;20038;-81
2022/04/01 09:30:31;;;;;;;9.60;2.50;;;;;;;-146.64;100.00;43437.25;5001892;28;20492;-81
2022/04/01 09:32:58;;;;;;;2.75;2.05;;;;;;;-146.64;100.00;41679.81;5013694;28;20022;-81
2022/04/01 09:35:26;;;;;;;4.22;2.17;;;;;;;-146.64;100.00;44461.75;4993920;28;20045;-81
2022/04/01 09:37:54;;;;;;;5.18;2.28;;;;;;;-146.64;100.00;44890.06;5013283;28;20036;-81
2022/04/01 09:40:22;;;;;;;4.57;2.30;;;;;;;-146.64;100.00;42349.50;5015685;28;20029;-81
2022/04/01 09:42:55;;;;;;;5.32;2.25;;;;;;;-146.64;100.00;42552.28;4994949;28;20033;-80
2022/04/01 09:45:24;;;;;;;5.70;2.83;;;;;;;-146.64;100.00;43002.94;5017413;28;20033;-80
2022/04/01 09:48:10;;;;;;;3.15;2.60;;;;;;;-146.64;100.00;40674.44;4997460;28;20037;-81
2022/04/01 09:50:37;;;;;;;3.50;2.10;;;;;;;-146.64;100.00;41438.16;5020340;28;20033;-81
2022/04/01 09:53:10;;;;;;;4.03;1.85;;;;;;;-146.64;100.00;40385.78;5014431;28;20025;-81
2022/04/01 09:55:37;;;;;;;11.45;3.13;;;;;;;-146.64;100.00;41028.66;5017489;28;20030;-81
2022/04/01 09:58:03;;;;;;;7.63;2.30;;;;;;;-146.64;100.00;40565.94;5009632;28;20026;-80
2022/04/01 10:00:29;;;;;;;6.85;2.28;;;;;;;-146.64;100.00;40627.38;5015498;28;20028;-81
2022/04/01 10:02:54;;;;;;;4.95;2.38;;;;;;;-146.64;100.00;40250.69;5013504;28;20045;-82
2022/04/01 10:05:19;;;;;;;3.92;1.70;;;;;;;-146.64;100.00;40205.66;5014119;28;20033;-82
2022/04/01 10:07:45;;;;;;;9.77;2.38;;;;;;;-146.64;100.00;40058.25;5010767;28;20076;-80
2022/04/01 10:10:10;;;;;;;4.85;2.63;;;;;;;-146.64;100.00;40291.63;5036911;28;20056;-80
2022/04/01 10:12:42;;;;;;;6.25;1.92;;;;;;;-146.64;100.00;40203.59;5020845;28;20030;-81
2022/04/01 10:15:08;;;;;;;4.22;1.90;;;;;;;-146.64;100.00;40222.03;4986021;28;20490;-81
2022/04/01 10:17:37;;;;;;;6.93;2.13;;;;;;;-146.64;100.00;40099.19;5015325;28;20029;-81
2022/04/01 10:20:02;;;;;;;2.75;1.75;;;;;;;-146.64;100.00;40072.59;4999648;28;20037;-82
2022/04/01 10:22:28;;;;;;;4.97;2.55;;;;;;;-146.64;100.00;40234.31;5018267;28;20030;-82
2022/04/01 10:25:01;;;;;;;3.30;1.98;;;;;;;-146.64;100.00;40045.97;5020095;28;20042;-82
2022/04/01 10:27:41;;;;;;;4.65;1.80;;;;;;;-146.64;100.00;39982.53;5000012;28;20038;-82
2022/04/01 10:30:09;;;;;;;5.30;1.98;;;;;;;-146.64;100.00;39738.94;5005162;28;20648;-82
2022/04/01 10:32:34;;;;;;;7.68;1.75;;;;;;;-146.64;100.00;39800.34;5004128;28;20053;-82
2022/04/01 10:35:00;;;;;;;10.18;1.98;;;;;;;-146.64;100.00;39914.97;5013425;28;20445;-84
2022/04/01 10:37:30;;;;;;;6.38;2.15;;;;;;;-146.64;100.00;39816.72;5019792;28;20026;-83
2022/04/01 10:39:58;;;;;;;3.78;1.77;;;;;;;-146.64;100.00;39826.97;5031551;28;20034;-82
2022/04/01 10:42:34;;;;;;;3.28;2.03;;;;;;;-146.64;100.00;40009.13;5018638;28;20030;-83
2022/04/01 10:45:21;;;;;;;5.43;2.30;;;;;;;-146.64;100.00;40209.75;5020327;28;20032;-83
2022/04/01 10:53:54;;;;;;;5.82;1.98;;;;;;;-146.64;100.00;39763.50;5024979;28;20052;-83
2022/04/01 10:56:22;;;;;;;3.08;1.70;;;;;;;-146.64;100.00;39847.44;5008709;28;20019;-83
2022/04/01 10:59:19;;;;;;;5.25;2.22;;;;;;;-146.64;100.00;39927.25;5025773;28;20069;-83
2022/04/01 11:01:53;;;;;;;3.63;2.38;;;;;;;-146.64;100.00;39767.59;5004438;28;20057;-83
2022/04/01 11:04:18;;;;;;;7.10;2.28;;;;;;;-146.64;100.00;39806.50;5022278;28;20101;-83
2022/04/01 11:06:51;;;;;;;2.75;2.00;;;;;;;-146.64;100.00;39810.59;5020751;28;20520;-83
2022/04/01 11:09:38;;;;;;;4.97;2.17;;;;;;;-146.64;100.00;39718.47;5007903;28;20466;-83
2022/04/01 11:12:15;;;;;;;2.60;1.70;;;;;;;-146.64;100.00;39689.81;5014547;28;20068;-82
2022/04/01 11:14:56;;;;;;;;;;;;;;;-146.64;100.00;39730.75;5015862;28;20029;-81
2022/04/01 11:17:28;;;;;;;3.03;2.17;;;;;;;-146.64;100.00;39706.19;5026291;28;19914;-82
2022/04/01 11:20:02;;;;;;;4.88;2.13;;;;;;;-146.64;100.00;39655.03;5003339;28;20030;-81
2022/04/01 11:23:03;;;;;;;4.35;2.05;;;;;;;-146.64;100.00;39673.44;5006982;28;20481;-82